createdAt,value
2019-05-09T00:00:37.501Z,17.87
2019-05-09T00:01:46.517Z,17.40
2019-05-09T00:02:55.128Z,17.43
2019-05-09T00:04:05.886Z,17.00
2019-05-09T00:05:10.536Z,16.80
2019-05-09T00:06:14.936Z,16.70
2019-05-09T00:07:19.887Z,16.20
2019-05-09T00:08:24.332Z,15.77
2019-05-09T00:09:28.909Z,16.03
2019-05-09T00:10:41.096Z,14.77
2019-05-09T00:11:39.628Z,15.53
2019-05-09T00:12:44.002Z,14.13
2019-05-09T00:13:48.436Z,14.13
2019-05-09T00:14:54.002Z,14.37
2019-05-09T00:15:58.497Z,13.77
2019-05-09T00:17:03.727Z,13.77
2019-05-09T00:18:08.362Z,13.23
2019-05-09T00:19:13.511Z,12.23
2019-05-09T00:20:39.814Z,12.70
2019-05-09T00:21:45.556Z,11.73
2019-05-09T00:22:50.189Z,11.00
2019-05-09T00:23:54.913Z,11.27
2019-05-09T00:24:59.469Z,11.07
2019-05-09T00:26:04.293Z,11.37
2019-05-09T00:27:08.888Z,10.38
2019-05-09T00:28:13.723Z,9.93
2019-05-09T00:29:24.440Z,9.63
2019-05-09T00:30:46.718Z,9.60
2019-05-09T00:31:57.470Z,9.33
2019-05-09T00:33:03.799Z,10.05
2019-05-09T00:34:09.993Z,9.20
2019-05-09T00:35:33.911Z,8.93
2019-05-09T00:36:38.494Z,8.97
2019-05-09T00:38:00.541Z,8.58
2019-05-09T00:39:06.529Z,8.40
2019-05-09T00:40:13.141Z,7.37
2019-05-09T00:41:17.225Z,7.10
2019-05-09T00:42:23.977Z,6.53
2019-05-09T00:43:27.906Z,7.23
2019-05-09T00:44:34.348Z,7.10
2019-05-09T00:46:00.734Z,6.40
2019-05-09T00:47:30.008Z,6.87
2019-05-09T00:48:53.950Z,6.77
2019-05-09T00:49:58.321Z,6.40
2019-05-09T00:51:03.579Z,6.37
2019-05-09T00:52:08.255Z,6.40
2019-05-09T00:53:13.755Z,6.00
2019-05-09T00:54:18.653Z,6.47
2019-05-09T00:55:23.888Z,6.57
2019-05-09T00:56:28.718Z,6.70
2019-05-09T00:57:35.985Z,6.10
2019-05-09T00:58:40.401Z,6.77
2019-05-09T00:59:44.812Z,6.77
2019-05-09T01:00:49.209Z,6.87
2019-05-09T01:01:54.325Z,6.60
2019-05-09T01:02:58.904Z,6.75
2019-05-09T01:04:04.363Z,6.80
2019-05-09T01:05:09.118Z,6.47
2019-05-09T01:06:13.588Z,6.03
2019-05-09T01:07:18.080Z,6.60
2019-05-09T01:08:24.148Z,6.13
2019-05-09T01:09:30.429Z,7.17
2019-05-09T01:10:34.750Z,6.47
2019-05-09T01:11:39.177Z,7.03
2019-05-09T01:12:43.812Z,6.33
2019-05-09T01:13:48.280Z,6.77
2019-05-09T01:14:53.902Z,7.53
2019-05-09T01:15:58.301Z,7.50
2019-05-09T01:17:04.286Z,6.77
2019-05-09T01:18:08.983Z,6.73
2019-05-09T01:19:14.087Z,7.73
2019-05-09T01:20:18.952Z,6.50
2019-05-09T01:21:24.197Z,6.40
2019-05-09T01:22:28.639Z,6.63
2019-05-09T01:23:34.413Z,6.70
2019-05-09T01:24:39.281Z,7.27
2019-05-09T01:25:43.722Z,6.73
2019-05-09T01:26:48.206Z,5.57
2019-05-09T01:27:53.872Z,5.90
2019-05-09T01:28:58.547Z,6.07
2019-05-09T01:30:04.615Z,6.43
2019-05-09T01:31:09.372Z,6.83
2019-05-09T01:32:23.504Z,5.53
2019-05-09T01:33:44.031Z,5.83
2019-05-09T01:34:48.745Z,5.70
2019-05-09T01:35:54.123Z,6.10
2019-05-09T01:37:05.900Z,5.80
2019-05-09T01:38:10.572Z,5.80
2019-05-09T01:39:15.209Z,6.40
2019-05-09T01:40:19.594Z,5.70
2019-05-09T01:41:30.381Z,6.27
2019-05-09T01:42:30.200Z,6.37
2019-05-09T01:43:34.764Z,5.70
2019-05-09T01:44:39.115Z,6.23
2019-05-09T01:45:46.603Z,5.53
2019-05-09T01:46:49.589Z,5.60
2019-05-09T01:47:54.133Z,5.80
2019-05-09T01:48:58.469Z,6.00
2019-05-09T01:50:03.906Z,5.53
2019-05-09T01:51:08.451Z,5.57
2019-05-09T01:52:13.717Z,5.70
2019-05-09T01:53:23.894Z,5.70
2019-05-09T01:54:28.557Z,5.70
2019-05-09T01:55:50.528Z,5.47
2019-05-09T01:56:55.009Z,5.67
2019-05-09T01:57:59.662Z,5.07
2019-05-09T01:59:04.084Z,4.93
2019-05-09T02:00:08.981Z,5.37
2019-05-09T02:01:13.627Z,4.80
2019-05-09T02:02:18.078Z,4.17
2019-05-09T02:03:23.349Z,4.57
2019-05-09T02:04:28.158Z,4.37
2019-05-09T02:05:34.055Z,4.10
2019-05-09T02:06:39.663Z,4.13
2019-05-09T02:07:44.105Z,4.20
2019-05-09T02:08:48.581Z,4.33
2019-05-09T02:09:54.017Z,4.40
2019-05-09T02:10:58.624Z,4.00
2019-05-09T02:12:03.840Z,4.23
2019-05-09T02:13:08.828Z,4.07
2019-05-09T02:14:14.893Z,3.77
2019-05-09T02:15:37.396Z,3.53
2019-05-09T02:16:55.178Z,4.10
2019-05-09T02:18:09.720Z,4.70
2019-05-09T02:19:43.967Z,4.00
2019-05-09T02:20:48.063Z,3.77
2019-05-09T02:21:53.084Z,4.13
2019-05-09T02:22:57.616Z,4.17
2019-05-09T02:24:03.249Z,3.70
2019-05-09T02:25:09.869Z,4.23
2019-05-09T02:26:14.302Z,3.83
2019-05-09T02:27:18.673Z,3.87
2019-05-09T02:28:23.508Z,3.90
2019-05-09T02:29:28.136Z,4.37
2019-05-09T02:30:35.780Z,4.37
2019-05-09T02:31:38.635Z,4.13
2019-05-09T02:32:45.181Z,3.77
2019-05-09T02:33:50.197Z,4.20
2019-05-09T02:34:56.473Z,4.40
2019-05-09T02:36:01.989Z,4.30
2019-05-09T02:37:09.247Z,4.20
2019-05-09T02:38:12.883Z,3.87
2019-05-09T02:39:18.925Z,4.63
2019-05-09T02:40:23.672Z,4.27
2019-05-09T02:41:28.740Z,4.23
2019-05-09T02:42:33.383Z,4.70
2019-05-09T02:43:38.942Z,4.27
2019-05-09T02:44:43.785Z,4.13
2019-05-09T02:45:59.513Z,4.33
2019-05-09T02:47:11.218Z,4.63
2019-05-09T02:48:18.387Z,4.50
2019-05-09T02:49:21.621Z,4.87
2019-05-09T02:50:28.564Z,4.70
2019-05-09T02:51:32.317Z,4.20
2019-05-09T02:52:40.082Z,4.57
2019-05-09T02:53:44.638Z,4.90
2019-05-09T02:54:50.067Z,5.30
2019-05-09T02:55:54.831Z,4.67
2019-05-09T02:56:59.198Z,4.40
2019-05-09T02:58:04.056Z,4.60
2019-05-09T02:59:30.086Z,4.60
2019-05-09T03:00:51.729Z,5.50
2019-05-09T03:02:09.223Z,5.03
2019-05-09T03:03:20.317Z,5.27
2019-05-09T03:04:24.644Z,4.90
2019-05-09T03:05:29.753Z,5.00
2019-05-09T03:06:38.808Z,5.03
2019-05-09T03:07:51.571Z,5.20
2019-05-09T03:08:59.097Z,5.47
2019-05-09T03:10:02.062Z,5.30
2019-05-09T03:11:09.588Z,5.20
2019-05-09T03:12:26.524Z,5.33
2019-05-09T03:13:20.007Z,5.93
2019-05-09T03:14:24.413Z,5.60
2019-05-09T03:15:29.359Z,5.50
2019-05-09T03:16:39.681Z,5.73
2019-05-09T03:17:43.101Z,5.80
2019-05-09T03:18:49.416Z,5.27
2019-05-09T03:19:53.519Z,5.97
2019-05-09T03:21:25.791Z,5.60
2019-05-09T03:22:30.151Z,5.53
2019-05-09T03:23:34.740Z,6.10
2019-05-09T03:24:39.527Z,5.97
2019-05-09T03:25:44.131Z,6.60
2019-05-09T03:26:52.880Z,6.20
2019-05-09T03:28:03.464Z,6.07
2019-05-09T03:29:31.046Z,6.50
2019-05-09T03:30:39.729Z,6.67
2019-05-09T03:31:44.504Z,6.50
2019-05-09T03:32:50.086Z,6.23
2019-05-09T03:33:54.774Z,6.13
2019-05-09T03:34:59.533Z,6.17
2019-05-09T03:36:05.046Z,6.23
2019-05-09T03:37:09.381Z,6.67
2019-05-09T03:38:13.883Z,6.40
2019-05-09T03:39:19.230Z,7.03
2019-05-09T03:40:23.539Z,6.60
2019-05-09T03:41:28.399Z,6.77
2019-05-09T03:42:43.054Z,6.80
2019-05-09T03:43:43.782Z,6.20
2019-05-09T03:44:48.136Z,6.17
2019-05-09T03:45:58.611Z,6.03
2019-05-09T03:47:30.979Z,6.17
2019-05-09T03:48:40.337Z,6.47
2019-05-09T03:49:47.658Z,7.07
2019-05-09T03:50:52.040Z,6.57
2019-05-09T03:51:58.346Z,6.93
2019-05-09T03:53:02.561Z,6.53
2019-05-09T03:54:08.082Z,7.00
2019-05-09T03:55:17.869Z,6.37
2019-05-09T03:56:27.392Z,6.27
2019-05-09T03:57:33.626Z,7.13
2019-05-09T03:58:38.591Z,7.10
2019-05-09T03:59:43.236Z,6.70
2019-05-09T04:00:47.986Z,7.47
2019-05-09T04:01:52.769Z,6.87
2019-05-09T04:02:58.022Z,7.43
2019-05-09T04:04:02.714Z,7.10
2019-05-09T04:05:08.140Z,7.47
2019-05-09T04:06:13.286Z,6.90
2019-05-09T04:07:18.670Z,7.73
2019-05-09T04:08:23.268Z,6.67
2019-05-09T04:09:27.665Z,7.37
2019-05-09T04:10:32.814Z,6.30
2019-05-09T04:11:38.126Z,6.70
2019-05-09T04:12:53.928Z,6.40
2019-05-09T04:13:54.496Z,7.30
2019-05-09T04:14:58.889Z,7.20
2019-05-09T04:16:03.536Z,6.80
2019-05-09T04:17:08.009Z,6.80
2019-05-09T04:18:12.877Z,6.23
2019-05-09T04:19:17.564Z,6.40
2019-05-09T04:20:22.145Z,6.37
2019-05-09T04:21:28.006Z,6.73
2019-05-09T04:22:32.544Z,6.33
2019-05-09T04:23:37.889Z,6.00
2019-05-09T04:24:42.532Z,7.70
2019-05-09T04:26:17.630Z,6.30
2019-05-09T04:27:29.645Z,5.80
2019-05-09T04:28:33.048Z,6.23
2019-05-09T04:29:37.537Z,6.53
2019-05-09T04:30:42.140Z,6.20
2019-05-09T04:31:48.362Z,6.60
2019-05-09T04:32:52.496Z,7.13
2019-05-09T04:33:57.393Z,6.67
2019-05-09T04:35:02.097Z,6.80
2019-05-09T04:36:08.306Z,7.90
2019-05-09T04:37:13.474Z,7.70
2019-05-09T04:38:18.070Z,7.97
2019-05-09T04:39:23.825Z,9.27
2019-05-09T04:40:31.760Z,9.57
2019-05-09T04:41:38.451Z,9.75
2019-05-09T04:42:44.423Z,8.10
2019-05-09T04:43:48.795Z,6.78
2019-05-09T04:45:03.458Z,5.60
2019-05-09T04:46:07.984Z,5.22
2019-05-09T04:47:13.030Z,4.93
2019-05-09T04:48:33.688Z,4.93
2019-05-09T04:49:40.967Z,3.92
2019-05-09T04:50:47.833Z,3.75
2019-05-09T04:51:52.312Z,4.97
2019-05-09T04:52:58.046Z,4.42
2019-05-09T04:54:02.906Z,3.77
2019-05-09T04:55:07.990Z,4.40
2019-05-09T04:56:18.468Z,3.60
2019-05-09T04:57:23.930Z,3.83
2019-05-09T04:58:28.284Z,3.20
2019-05-09T04:59:32.697Z,2.95
2019-05-09T05:00:57.210Z,3.40
2019-05-09T05:02:22.819Z,3.47
2019-05-09T05:03:28.372Z,3.10
2019-05-09T05:04:32.920Z,3.20
2019-05-09T05:05:40.179Z,3.10
2019-05-09T05:06:43.820Z,3.10
2019-05-09T05:07:48.212Z,2.45
2019-05-09T05:08:52.585Z,2.58
2019-05-09T05:09:57.616Z,2.70
2019-05-09T05:11:03.378Z,2.33
2019-05-09T05:12:09.791Z,2.20
2019-05-09T05:13:25.771Z,2.62
2019-05-09T05:14:23.660Z,2.40
2019-05-09T05:15:28.211Z,2.30
2019-05-09T05:16:32.788Z,2.27
2019-05-09T05:17:37.785Z,1.82
2019-05-09T05:18:42.372Z,2.25
2019-05-09T05:19:47.664Z,1.90
2019-05-09T05:20:52.496Z,2.10
2019-05-09T05:22:00.858Z,2.35
2019-05-09T05:23:24.393Z,2.22
2019-05-09T05:24:42.349Z,1.95
2019-05-09T05:25:47.536Z,2.15
2019-05-09T05:26:52.159Z,2.35
2019-05-09T05:27:58.125Z,1.90
2019-05-09T05:29:02.677Z,1.60
2019-05-09T05:30:07.857Z,1.82
2019-05-09T05:31:12.344Z,1.80
2019-05-09T05:32:24.401Z,2.10
2019-05-09T05:33:51.122Z,1.70
2019-05-09T05:35:11.548Z,1.77
2019-05-09T05:36:18.023Z,2.12
2019-05-09T05:37:22.187Z,1.98
2019-05-09T05:38:27.533Z,1.80
2019-05-09T05:39:32.107Z,1.67
2019-05-09T05:40:45.154Z,1.57
2019-05-09T05:41:42.864Z,1.98
2019-05-09T05:42:48.861Z,1.90
2019-05-09T05:43:53.452Z,1.90
2019-05-09T05:44:58.397Z,1.82
2019-05-09T05:46:13.945Z,1.67
2019-05-09T05:47:29.254Z,1.90
2019-05-09T05:48:33.788Z,1.80
2019-05-09T05:49:38.579Z,1.75
2019-05-09T05:50:43.071Z,1.80
2019-05-09T05:51:51.138Z,1.90
2019-05-09T05:52:57.619Z,1.67
2019-05-09T05:54:01.767Z,1.80
2019-05-09T05:55:07.589Z,2.00
2019-05-09T05:56:12.083Z,1.70
2019-05-09T05:57:17.658Z,2.02
2019-05-09T05:58:22.150Z,1.50
2019-05-09T05:59:32.035Z,1.90
2019-05-09T06:00:37.747Z,1.50
2019-05-09T06:01:42.293Z,1.90
2019-05-09T06:02:47.842Z,1.70
2019-05-09T06:03:52.671Z,1.62
2019-05-09T06:04:57.916Z,1.70
2019-05-09T06:06:02.699Z,1.62
2019-05-09T06:07:08.029Z,1.92
2019-05-09T06:08:13.559Z,1.70
2019-05-09T06:09:18.901Z,1.72
2019-05-09T06:10:23.732Z,1.85
2019-05-09T06:11:28.288Z,1.90
2019-05-09T06:12:32.752Z,1.87
2019-05-09T06:13:37.973Z,1.70
2019-05-09T06:14:42.604Z,1.95
2019-05-09T06:15:48.189Z,2.10
2019-05-09T06:16:52.755Z,1.90
2019-05-09T06:17:57.978Z,1.72
2019-05-09T06:19:02.566Z,1.77
2019-05-09T06:20:09.111Z,2.22
2019-05-09T06:21:17.714Z,2.00
2019-05-09T06:22:22.898Z,2.00
2019-05-09T06:23:29.692Z,1.98
2019-05-09T06:24:34.012Z,2.52
2019-05-09T06:25:39.078Z,2.10
2019-05-09T06:26:43.624Z,1.67
2019-05-09T06:27:48.421Z,1.80
2019-05-09T06:28:52.919Z,1.98
2019-05-09T06:29:58.130Z,2.00
2019-05-09T06:31:03.209Z,1.82
2019-05-09T06:32:08.161Z,1.80
2019-05-09T06:33:12.713Z,2.17
2019-05-09T06:34:19.100Z,1.90
2019-05-09T06:35:24.838Z,2.20
2019-05-09T06:36:29.192Z,2.30
2019-05-09T06:37:33.564Z,1.87
2019-05-09T06:38:38.009Z,2.08
2019-05-09T06:39:42.326Z,1.55
2019-05-09T06:40:47.584Z,2.00
2019-05-09T06:41:52.314Z,1.87
2019-05-09T06:42:59.876Z,2.00
2019-05-09T06:44:28.101Z,2.02
2019-05-09T06:45:48.613Z,2.00
2019-05-09T06:47:08.278Z,2.17
2019-05-09T06:48:13.943Z,2.35
2019-05-09T06:49:28.317Z,2.00
2019-05-09T06:50:28.946Z,2.30
2019-05-09T06:51:33.532Z,2.30
2019-05-09T06:52:38.976Z,1.80
2019-05-09T06:53:43.315Z,1.87
2019-05-09T06:54:48.567Z,2.08
2019-05-09T06:55:53.545Z,2.20
2019-05-09T06:56:58.593Z,2.15
2019-05-09T06:58:23.378Z,2.00
2019-05-09T06:59:28.438Z,2.08
2019-05-09T07:00:50.666Z,2.25
2019-05-09T07:02:04.336Z,2.00
2019-05-09T07:03:13.050Z,2.17
2019-05-09T07:04:30.780Z,1.90
2019-05-09T07:05:57.596Z,1.80
2019-05-09T07:07:12.099Z,1.72
2019-05-09T07:08:22.423Z,1.72
2019-05-09T07:09:34.784Z,2.80
2019-05-09T07:10:39.316Z,1.80
2019-05-09T07:11:43.614Z,2.27
2019-05-09T07:12:48.718Z,1.90
2019-05-09T07:13:53.219Z,1.65
2019-05-09T07:14:58.306Z,1.47
2019-05-09T07:16:02.846Z,1.67
2019-05-09T07:17:08.288Z,1.52
2019-05-09T07:18:13.613Z,1.90
2019-05-09T07:19:18.006Z,1.80
2019-05-09T07:20:22.557Z,1.90
2019-05-09T07:21:48.356Z,1.50
2019-05-09T07:22:54.536Z,1.75
2019-05-09T07:23:59.193Z,1.67
2019-05-09T07:25:31.885Z,2.15
2019-05-09T07:26:37.376Z,1.82
2019-05-09T07:27:41.905Z,2.15
2019-05-09T07:28:48.355Z,1.80
2019-05-09T07:29:52.790Z,1.90
2019-05-09T07:31:28.566Z,1.70
2019-05-09T07:32:38.867Z,2.05
2019-05-09T07:34:12.705Z,2.00
2019-05-09T07:35:19.160Z,1.75
2019-05-09T07:36:23.824Z,1.80
2019-05-09T07:37:28.238Z,1.80
2019-05-09T07:38:33.472Z,1.60
2019-05-09T07:39:38.175Z,1.90
2019-05-09T07:40:42.546Z,2.00
2019-05-09T07:41:47.781Z,2.02
2019-05-09T07:42:52.657Z,2.12
2019-05-09T07:43:58.354Z,2.20
2019-05-09T07:45:02.955Z,1.80
2019-05-09T07:46:10.362Z,2.02
2019-05-09T07:47:15.190Z,1.82
2019-05-09T07:48:19.627Z,2.10
2019-05-09T07:49:24.003Z,1.77
2019-05-09T07:50:28.408Z,1.77
2019-05-09T07:51:32.830Z,1.72
2019-05-09T07:52:38.753Z,1.57
2019-05-09T07:53:43.471Z,1.95
2019-05-09T07:54:48.386Z,1.60
2019-05-09T07:55:52.870Z,1.47
2019-05-09T07:56:58.011Z,1.72
2019-05-09T07:58:02.548Z,1.60
2019-05-09T07:59:08.151Z,1.67
2019-05-09T08:01:23.418Z,1.55
2019-05-09T08:02:28.351Z,1.65
2019-05-09T08:03:32.845Z,1.92
2019-05-09T08:04:38.657Z,1.45
2019-05-09T08:05:43.288Z,1.98
2019-05-09T08:06:48.655Z,1.50
2019-05-09T08:07:53.345Z,1.52
2019-05-09T08:08:58.364Z,1.50
2019-05-09T08:10:03.046Z,1.80
2019-05-09T08:11:08.829Z,1.47
2019-05-09T08:12:13.786Z,1.60
2019-05-09T08:13:21.334Z,1.87
2019-05-09T08:14:24.271Z,1.80
2019-05-09T08:15:28.688Z,1.75
2019-05-09T08:16:33.489Z,1.55
2019-05-09T08:17:38.272Z,1.55
2019-05-09T08:18:42.804Z,2.08
2019-05-09T08:19:48.408Z,1.70
2019-05-09T08:20:53.432Z,1.90
2019-05-09T08:21:59.831Z,1.90
2019-05-09T08:23:04.220Z,2.25
2019-05-09T08:24:10.260Z,1.92
2019-05-09T08:25:14.757Z,1.90
2019-05-09T08:26:19.289Z,2.42
2019-05-09T08:27:23.782Z,1.90
2019-05-09T08:28:28.249Z,2.37
2019-05-09T08:29:32.935Z,1.95
2019-05-09T08:30:40.375Z,2.33
2019-05-09T08:31:45.476Z,2.90
2019-05-09T08:32:49.775Z,2.25
2019-05-09T08:33:55.283Z,2.00
2019-05-09T08:34:59.770Z,2.10
2019-05-09T08:36:04.247Z,2.00
2019-05-09T08:37:12.340Z,2.27
2019-05-09T08:38:14.952Z,2.00
2019-05-09T08:39:20.669Z,1.57
2019-05-09T08:40:28.375Z,1.65
2019-05-09T08:41:32.051Z,1.90
2019-05-09T08:42:37.877Z,2.55
2019-05-09T08:43:42.759Z,1.72
2019-05-09T08:44:48.236Z,1.70
2019-05-09T08:45:52.933Z,1.80
2019-05-09T08:46:57.507Z,1.62
2019-05-09T08:48:02.405Z,1.50
2019-05-09T08:49:08.150Z,1.47
2019-05-09T08:50:34.789Z,1.52
2019-05-09T08:52:06.376Z,2.00
2019-05-09T08:52:57.610Z,1.40
2019-05-09T08:54:02.449Z,1.45
2019-05-09T08:55:08.479Z,1.40
2019-05-09T08:56:13.751Z,1.12
2019-05-09T08:57:18.433Z,1.92
2019-05-09T08:58:22.907Z,1.75
2019-05-09T08:59:27.671Z,1.87
2019-05-09T09:00:33.690Z,1.52
2019-05-09T09:01:54.285Z,1.87
2019-05-09T09:02:44.212Z,1.52
2019-05-09T09:03:50.426Z,1.80
2019-05-09T09:04:54.866Z,1.20
2019-05-09T09:06:01.133Z,1.77
2019-05-09T09:07:05.505Z,1.87
2019-05-09T09:08:10.366Z,1.67
2019-05-09T09:09:17.978Z,1.80
2019-05-09T09:10:24.729Z,1.87
2019-05-09T09:11:29.515Z,1.70
2019-05-09T09:12:53.458Z,1.60
2019-05-09T09:13:57.894Z,1.77
2019-05-09T09:15:03.791Z,1.90
2019-05-09T09:16:18.305Z,1.52
2019-05-09T09:17:14.647Z,1.40
2019-05-09T09:18:19.092Z,1.47
2019-05-09T09:19:23.583Z,1.77
2019-05-09T09:20:28.782Z,1.15
2019-05-09T09:21:33.697Z,1.37
2019-05-09T09:22:38.228Z,1.72
2019-05-09T09:23:47.197Z,1.47
2019-05-09T09:24:48.885Z,1.32
2019-05-09T09:25:53.301Z,1.70
2019-05-09T09:26:57.648Z,2.10
2019-05-09T09:28:02.465Z,1.60
2019-05-09T09:29:08.521Z,1.90
2019-05-09T09:30:20.914Z,1.60
2019-05-09T09:31:19.905Z,1.77
2019-05-09T09:32:24.290Z,1.25
2019-05-09T09:33:29.163Z,1.50
2019-05-09T09:34:33.723Z,1.67
2019-05-09T09:35:38.530Z,1.50
2019-05-09T09:36:44.125Z,1.77
2019-05-09T09:37:51.994Z,1.50
2019-05-09T09:38:54.892Z,1.90
2019-05-09T09:39:59.405Z,1.80
2019-05-09T09:41:03.905Z,1.80
2019-05-09T09:42:09.160Z,1.57
2019-05-09T09:43:14.376Z,1.87
2019-05-09T09:44:21.995Z,2.17
2019-05-09T09:45:28.018Z,2.10
2019-05-09T09:46:32.864Z,1.75
2019-05-09T09:47:39.592Z,1.62
2019-05-09T09:48:43.588Z,1.72
2019-05-09T09:49:49.037Z,1.60
2019-05-09T09:50:57.962Z,1.60
2019-05-09T09:52:02.381Z,2.30
2019-05-09T09:53:08.674Z,1.67
2019-05-09T09:54:15.039Z,1.80
2019-05-09T09:55:19.450Z,1.80
2019-05-09T09:56:25.163Z,1.82
2019-05-09T09:57:29.999Z,1.60
2019-05-09T09:58:34.548Z,1.70
2019-05-09T09:59:48.716Z,1.90
2019-05-09T10:01:04.406Z,1.82
2019-05-09T10:02:10.515Z,1.40
2019-05-09T10:03:18.654Z,1.30
2019-05-09T10:04:24.402Z,1.55
2019-05-09T10:05:30.652Z,1.37
2019-05-09T10:06:35.133Z,1.32
2019-05-09T10:07:39.600Z,1.70
2019-05-09T10:08:45.172Z,1.22
2019-05-09T10:09:49.639Z,1.30
2019-05-09T10:10:54.251Z,1.27
2019-05-09T10:12:00.686Z,1.37
2019-05-09T10:13:10.364Z,2.65
2019-05-09T10:14:18.649Z,1.65
2019-05-09T10:15:30.307Z,1.62
2019-05-09T10:16:51.298Z,1.40
2019-05-09T10:18:21.054Z,1.27
2019-05-09T10:19:33.268Z,1.45
2019-05-09T10:20:44.825Z,1.30
2019-05-09T10:21:52.413Z,1.37
2019-05-09T10:23:03.357Z,1.37
2019-05-09T10:24:07.918Z,1.42
2019-05-09T10:25:11.235Z,1.40
2019-05-09T10:26:17.835Z,1.60
2019-05-09T10:27:23.282Z,1.30
2019-05-09T10:28:30.061Z,1.32
2019-05-09T10:29:34.042Z,2.00
2019-05-09T10:30:38.558Z,1.20
2019-05-09T10:31:43.028Z,1.37
2019-05-09T10:32:47.691Z,1.57
2019-05-09T10:33:52.272Z,1.22
2019-05-09T10:34:58.053Z,1.30
2019-05-09T10:36:04.806Z,1.40
2019-05-09T10:37:09.006Z,1.22
2019-05-09T10:38:18.363Z,1.45
2019-05-09T10:39:24.289Z,1.40
2019-05-09T10:40:30.132Z,1.45
2019-05-09T10:41:34.469Z,1.27
2019-05-09T10:42:55.240Z,1.27
2019-05-09T10:44:15.412Z,1.27
2019-05-09T10:45:40.769Z,1.37
2019-05-09T10:47:00.727Z,1.22
2019-05-09T10:48:00.512Z,1.12
2019-05-09T10:49:07.988Z,1.40
2019-05-09T10:50:12.096Z,1.40
2019-05-09T10:51:18.559Z,1.65
2019-05-09T10:52:22.765Z,1.70
2019-05-09T10:53:28.426Z,1.80
2019-05-09T10:54:34.059Z,1.55
2019-05-09T10:55:38.765Z,1.60
2019-05-09T10:56:43.366Z,1.47
2019-05-09T10:57:52.085Z,1.80
2019-05-09T10:58:53.835Z,1.45
2019-05-09T10:59:58.491Z,2.42
2019-05-09T11:01:02.894Z,1.05
2019-05-09T11:02:09.460Z,1.45
2019-05-09T11:03:14.886Z,1.47
2019-05-09T11:04:19.317Z,1.37
2019-05-09T11:05:23.753Z,1.50
2019-05-09T11:06:29.629Z,1.50
2019-05-09T11:07:35.014Z,1.50
2019-05-09T11:08:39.474Z,1.50
2019-05-09T11:09:44.065Z,1.35
2019-05-09T11:10:48.525Z,1.27
2019-05-09T11:11:52.920Z,1.98
2019-05-09T11:12:58.459Z,1.40
2019-05-09T11:14:03.041Z,1.22
2019-05-09T11:15:09.131Z,1.40
2019-05-09T11:16:14.266Z,1.40
2019-05-09T11:17:21.760Z,1.37
2019-05-09T11:18:25.083Z,1.30
2019-05-09T11:19:29.596Z,1.62
2019-05-09T11:20:34.030Z,1.72
2019-05-09T11:21:39.244Z,1.62
2019-05-09T11:22:45.629Z,1.20
2019-05-09T11:23:50.108Z,1.32
2019-05-09T11:24:57.981Z,1.40
2019-05-09T11:26:02.127Z,1.45
2019-05-09T11:27:08.475Z,1.30
2019-05-09T11:28:15.189Z,1.35
2019-05-09T11:29:19.721Z,1.20
2019-05-09T11:30:25.264Z,1.27
2019-05-09T11:31:29.872Z,1.10
2019-05-09T11:32:34.865Z,1.12
2019-05-09T11:33:39.317Z,1.30
2019-05-09T11:34:43.658Z,1.42
2019-05-09T11:35:49.699Z,1.10
2019-05-09T11:36:54.110Z,1.42
2019-05-09T11:37:58.860Z,1.32
2019-05-09T11:39:10.247Z,1.10
2019-05-09T11:40:13.027Z,1.47
2019-05-09T11:41:19.320Z,1.40
2019-05-09T11:42:23.612Z,1.10
2019-05-09T11:43:29.882Z,1.30
2019-05-09T11:44:34.266Z,1.25
2019-05-09T11:45:38.924Z,1.20
2019-05-09T11:46:43.532Z,1.15
2019-05-09T11:47:48.018Z,1.22
2019-05-09T11:48:52.488Z,0.80
2019-05-09T11:49:57.762Z,0.90
2019-05-09T11:51:02.547Z,1.17
2019-05-09T11:52:08.448Z,1.35
2019-05-09T11:53:13.604Z,1.10
2019-05-09T11:54:21.401Z,1.20
2019-05-09T11:55:34.671Z,1.75
2019-05-09T11:56:32.475Z,1.10
2019-05-09T11:57:38.473Z,1.40
2019-05-09T11:58:44.284Z,1.20
2019-05-09T11:59:48.749Z,1.45
2019-05-09T12:00:53.287Z,1.65
2019-05-09T12:01:58.652Z,1.10
2019-05-09T12:03:03.385Z,0.78
2019-05-09T12:04:08.641Z,1.30
2019-05-09T12:05:14.201Z,1.00
2019-05-09T12:06:20.223Z,0.98
2019-05-09T12:07:25.423Z,0.95
2019-05-09T12:08:29.815Z,1.15
2019-05-09T12:09:34.341Z,1.10
2019-05-09T12:10:41.259Z,0.80
2019-05-09T12:11:47.993Z,0.80
2019-05-09T12:12:51.874Z,1.00
2019-05-09T12:13:58.400Z,0.90
2019-05-09T12:15:04.914Z,1.05
2019-05-09T12:16:09.837Z,1.20
2019-05-09T12:17:14.632Z,1.35
2019-05-09T12:18:19.212Z,1.22
2019-05-09T12:19:23.852Z,0.85
2019-05-09T12:20:28.908Z,1.00
2019-05-09T12:21:33.290Z,1.27
2019-05-09T12:22:37.932Z,1.30
2019-05-09T12:23:42.415Z,1.32
2019-05-09T12:24:48.130Z,1.00
2019-05-09T12:25:52.548Z,0.90
2019-05-09T12:26:57.637Z,0.90
2019-05-09T12:28:03.352Z,0.90
2019-05-09T12:29:08.689Z,1.67
2019-05-09T12:30:14.053Z,1.00
2019-05-09T12:31:18.602Z,1.20
2019-05-09T12:32:23.188Z,1.05
2019-05-09T12:33:29.614Z,1.32
2019-05-09T12:34:36.320Z,1.10
2019-05-09T12:35:40.928Z,1.00
2019-05-09T12:36:49.426Z,1.20
2019-05-09T12:37:53.137Z,1.10
2019-05-09T12:38:59.105Z,0.75
2019-05-09T12:40:05.097Z,1.10
2019-05-09T12:41:09.825Z,1.10
2019-05-09T12:42:14.435Z,1.20
2019-05-09T12:43:19.020Z,1.37
2019-05-09T12:44:25.142Z,1.12
2019-05-09T12:45:29.533Z,1.15
2019-05-09T12:46:34.765Z,1.07
2019-05-09T12:47:39.848Z,1.47
2019-05-09T12:48:44.482Z,1.37
2019-05-09T12:49:48.977Z,1.05
2019-05-09T12:50:54.173Z,1.20
2019-05-09T12:51:59.104Z,1.00
2019-05-09T12:53:06.534Z,1.20
2019-05-09T12:54:11.004Z,1.00
2019-05-09T12:55:17.746Z,1.10
2019-05-09T12:56:22.288Z,1.45
2019-05-09T12:57:28.904Z,1.57
2019-05-09T12:58:33.211Z,1.30
2019-05-09T12:59:46.462Z,1.20
2019-05-09T13:00:44.094Z,1.55
2019-05-09T13:01:49.413Z,1.60
2019-05-09T13:02:54.150Z,1.30
2019-05-09T13:03:58.546Z,1.32
2019-05-09T13:05:03.503Z,1.30
2019-05-09T13:06:08.377Z,1.17
2019-05-09T13:07:13.864Z,1.47
2019-05-09T13:08:18.248Z,1.72
2019-05-09T13:09:23.011Z,1.30
2019-05-09T13:10:28.344Z,1.35
2019-05-09T13:11:34.117Z,1.02
2019-05-09T13:12:39.030Z,1.17
2019-05-09T13:13:47.837Z,1.15
2019-05-09T13:14:52.192Z,1.30
2019-05-09T13:16:17.686Z,1.25
2019-05-09T13:17:32.038Z,1.35
2019-05-09T13:18:54.353Z,1.20
2019-05-09T13:19:58.915Z,1.22
2019-05-09T13:21:07.714Z,1.30
2019-05-09T13:22:11.609Z,1.30
2019-05-09T13:23:17.955Z,1.60
2019-05-09T13:24:24.226Z,1.20
2019-05-09T13:25:30.233Z,1.17
2019-05-09T13:26:38.289Z,1.32
2019-05-09T13:27:42.345Z,1.37
2019-05-09T13:28:48.880Z,1.40
2019-05-09T13:29:54.000Z,1.37
2019-05-09T13:30:58.618Z,1.72
2019-05-09T13:32:03.361Z,1.10
2019-05-09T13:33:10.692Z,1.20
2019-05-09T13:34:14.148Z,1.20
2019-05-09T13:35:19.854Z,1.10
2019-05-09T13:36:24.900Z,1.20
2019-05-09T13:37:30.443Z,1.25
2019-05-09T13:38:34.995Z,1.20
2019-05-09T13:39:39.926Z,1.10
2019-05-09T13:40:53.032Z,1.30
2019-05-09T13:41:53.597Z,1.40
2019-05-09T13:42:58.729Z,1.07
2019-05-09T13:44:05.938Z,1.15
2019-05-09T13:45:09.785Z,1.42
2019-05-09T13:46:17.701Z,1.10
2019-05-09T13:47:21.664Z,1.10
2019-05-09T13:48:37.892Z,1.47
2019-05-09T13:49:32.471Z,1.47
2019-05-09T13:50:38.143Z,1.12
2019-05-09T13:51:51.628Z,1.00
2019-05-09T13:52:52.783Z,1.40
2019-05-09T13:53:59.274Z,0.90
2019-05-09T13:55:03.546Z,1.10
2019-05-09T13:56:08.618Z,1.10
2019-05-09T13:57:13.297Z,0.82
2019-05-09T13:58:19.529Z,0.80
2019-05-09T13:59:24.644Z,0.88
2019-05-09T14:00:29.426Z,1.20
2019-05-09T14:01:53.209Z,0.80
2019-05-09T14:02:58.737Z,1.20
2019-05-09T14:04:03.122Z,1.10
2019-05-09T14:05:09.044Z,1.20
2019-05-09T14:06:14.047Z,0.85
2019-05-09T14:07:19.431Z,0.88
2019-05-09T14:08:24.044Z,0.90
2019-05-09T14:09:29.366Z,1.10
2019-05-09T14:10:34.145Z,0.93
2019-05-09T14:11:38.856Z,0.88
2019-05-09T14:12:43.317Z,0.78
2019-05-09T14:13:49.044Z,0.88
2019-05-09T14:14:53.593Z,1.02
2019-05-09T14:15:58.024Z,0.80
2019-05-09T14:17:04.270Z,1.22
2019-05-09T14:18:09.073Z,1.00
2019-05-09T14:19:40.526Z,0.88
2019-05-09T14:20:22.440Z,0.82
2019-05-09T14:21:29.749Z,0.80
2019-05-09T14:22:34.549Z,1.00
2019-05-09T14:23:48.658Z,0.90
2019-05-09T14:24:48.413Z,0.80
2019-05-09T14:25:53.074Z,0.90
2019-05-09T14:26:58.406Z,0.80
2019-05-09T14:28:03.402Z,0.80
2019-05-09T14:29:12.148Z,1.00
2019-05-09T14:30:14.300Z,0.72
2019-05-09T14:31:18.952Z,0.60
2019-05-09T14:32:26.429Z,0.90
2019-05-09T14:33:29.737Z,0.98
2019-05-09T14:34:34.308Z,0.80
2019-05-09T14:35:38.839Z,0.90
2019-05-09T14:36:45.627Z,1.05
2019-05-09T14:38:09.018Z,0.80
2019-05-09T14:39:18.185Z,0.60
2019-05-09T14:40:25.185Z,0.78
2019-05-09T14:41:29.517Z,1.00
2019-05-09T14:42:34.023Z,0.85
2019-05-09T14:43:40.300Z,1.17
2019-05-09T14:44:44.805Z,0.95
2019-05-09T14:45:49.490Z,1.92
2019-05-09T14:46:53.945Z,0.70
2019-05-09T14:47:58.844Z,0.90
2019-05-09T14:49:03.504Z,0.98